Time;durP1;ratioP1;P1;durP2;ratioP2;P2;SDS_P1;SDS_P2;PMS_P1;PMS_P2;Temp;Humidity;BMP_temperature;BMP_pressure;BME280_temperature;BME280_humidity;BME280_pressure;Samples;Min_cycle;Max_cycle;Signal;HPM_P1;HPM_P2
2022/04/10 00:02:13;;;;;;;13.50;3.10;;;;;;;1.68;100.00;99582.81;7395741;19;20746;-44
2022/04/10 00:04:43;;;;;;;12.90;3.00;;;;;;;1.69;100.00;99585.44;7384328;19;20810;-44
2022/04/10 00:07:13;;;;;;;14.70;3.60;;;;;;;1.68;100.00;99582.81;7395169;19;20385;-45
2022/04/10 00:09:45;;;;;;;9.03;2.80;;;;;;;1.73;100.00;99582.31;7385924;19;20771;-47
2022/04/10 00:12:15;;;;;;;13.83;2.67;;;;;;;1.75;100.00;99583.25;7396439;19;20379;-43
2022/04/10 00:14:45;;;;;;;6.90;2.23;;;;;;;1.67;100.00;99581.94;7359095;19;20440;-44
2022/04/10 00:17:14;;;;;;;3.13;1.60;;;;;;;1.60;100.00;99584.91;7396108;19;20940;-46
2022/04/10 00:19:45;;;;;;;13.60;2.77;;;;;;;1.56;100.00;99588.06;7363636;19;20450;-44
2022/04/10 00:22:15;;;;;;;10.50;1.93;;;;;;;1.70;100.00;99587.19;7395889;19;20772;-45
2022/04/10 00:24:47;;;;;;;19.50;2.70;;;;;;;1.56;100.00;99593.16;7386755;19;20802;-47
2022/04/10 00:27:17;;;;;;;13.90;3.30;;;;;;;1.64;100.00;99588.53;7396153;19;21219;-47
2022/04/10 00:29:46;;;;;;;6.53;2.15;;;;;;;1.48;100.00;99596.13;7364567;19;20426;-45
2022/04/10 00:32:22;;;;;;;15.68;2.95;;;;;;;1.59;100.00;99588.25;7395660;19;20130;-44
2022/04/10 00:34:52;;;;;;;15.10;2.97;;;;;;;1.50;100.00;99592.78;7383586;19;20193;-45
2022/04/10 00:37:21;;;;;;;5.30;1.90;;;;;;;1.40;100.00;99604.06;7393186;19;20206;-45
2022/04/10 00:39:54;;;;;;;10.83;2.73;;;;;;;1.38;100.00;99609.03;7386070;19;20431;-47
2022/04/10 00:42:23;;;;;;;11.32;3.00;;;;;;;1.39;100.00;99615.03;7394665;19;20407;-48
2022/04/10 00:44:53;;;;;;;11.73;2.47;;;;;;;1.34;100.00;99618.16;7386669;19;20221;-45
2022/04/10 00:47:22;;;;;;;9.10;2.50;;;;;;;1.31;100.00;99622.19;7394426;19;20135;-47
2022/04/10 00:49:52;;;;;;;15.60;2.57;;;;;;;1.29;100.00;99618.69;7384389;19;20437;-45
2022/04/10 00:52:22;;;;;;;6.15;1.40;;;;;;;1.25;100.00;99625.25;7392994;19;20376;-44
2022/04/10 00:54:55;;;;;;;7.33;2.03;;;;;;;1.25;100.00;99637.06;7386876;19;20196;-47
2022/04/10 00:57:26;;;;;;;7.77;2.03;;;;;;;1.24;100.00;99638.72;7394100;19;20383;-44
2022/04/10 00:59:55;;;;;;;12.13;2.03;;;;;;;1.23;100.00;99638.63;7381872;19;20485;-45
2022/04/10 01:02:25;;;;;;;11.60;2.53;;;;;;;1.27;100.00;99635.50;7399756;19;20751;-46
2022/04/10 01:04:55;;;;;;;5.83;1.37;;;;;;;1.20;100.00;99635.13;7392161;19;20471;-44
2022/04/10 01:07:25;;;;;;;13.43;2.25;;;;;;;1.27;100.00;99633.81;7400480;19;20399;-48
2022/04/10 01:09:57;;;;;;;7.85;1.80;;;;;;;1.26;100.00;99628.63;7389940;19;20202;-45
2022/04/10 01:12:26;;;;;;;8.67;1.97;;;;;;;1.24;100.00;99632.75;7402164;19;20127;-48
2022/04/10 01:14:56;;;;;;;17.47;3.10;;;;;;;1.22;100.00;99637.75;7397954;19;20447;-50
2022/04/10 01:17:25;;;;;;;2.83;0.90;;;;;;;1.14;100.00;99644.91;7402214;19;20682;-49
2022/04/10 01:19:55;;;;;;;5.10;1.83;;;;;;;1.22;100.00;99647.91;7392361;19;20432;-44
2022/04/10 01:22:33;;;;;;;13.27;3.50;;;;;;;1.28;100.00;99640.66;7401881;19;20403;-44
2022/04/10 01:25:06;;;;;;;12.75;3.72;;;;;;;1.19;100.00;99643.50;7400530;19;20242;-43
2022/04/10 01:27:39;;;;;;;9.00;1.30;;;;;;;1.13;100.00;99658.38;7401670;19;20211;-47
2022/04/10 01:30:11;;;;;;;6.20;2.00;;;;;;;1.20;100.00;99663.09;7398302;19;20233;-46
2022/04/10 01:32:45;;;;;;;11.90;2.30;;;;;;;1.31;100.00;99667.94;7368261;19;20191;-48
2022/04/10 01:35:15;;;;;;;16.00;4.18;;;;;;;1.31;100.00;99673.91;7397927;19;20140;-46
2022/04/10 01:37:48;;;;;;;11.67;2.20;;;;;;;1.09;100.00;99671.69;7390753;19;20134;-47
2022/04/10 01:40:19;;;;;;;10.07;2.40;;;;;;;1.16;100.00;99673.84;7401132;19;20380;-46
2022/04/10 01:42:48;;;;;;;9.73;2.17;;;;;;;1.07;100.00;99668.16;7381813;19;20124;-45
2022/04/10 01:45:18;;;;;;;9.43;3.40;;;;;;;1.01;100.00;99663.59;7393643;19;20407;-44
2022/04/10 01:47:52;;;;;;;8.50;1.80;;;;;;;0.98;100.00;99652.34;7393557;19;20489;-46
2022/04/10 01:50:22;;;;;;;7.07;1.73;;;;;;;0.98;100.00;99632.03;7401118;19;20609;-47
2022/04/10 01:52:54;;;;;;;16.02;2.20;;;;;;;0.92;100.00;99633.41;7383185;19;20394;-44
2022/04/10 01:55:24;;;;;;;5.03;1.63;;;;;;;0.76;100.00;99625.59;7399579;19;20594;-47
2022/04/10 01:57:53;;;;;;;10.03;2.77;;;;;;;0.77;100.00;99617.22;7382735;19;20388;-45
2022/04/10 02:00:23;;;;;;;5.65;1.50;;;;;;;0.69;100.00;99606.56;7400643;19;20388;-45
2022/04/10 02:02:56;;;;;;;9.43;1.92;;;;;;;0.61;100.00;99603.53;7394504;19;20135;-46
2022/04/10 02:05:26;;;;;;;10.77;2.17;;;;;;;0.55;100.00;99590.47;7401249;19;20127;-46
2022/04/10 02:07:58;;;;;;;5.07;1.63;;;;;;;0.57;100.00;99588.91;7391610;19;20127;-45
2022/04/10 02:10:28;;;;;;;8.57;3.17;;;;;;;0.57;100.00;99573.69;7401197;19;20126;-44
2022/04/10 02:12:57;;;;;;;12.02;1.55;;;;;;;0.56;100.00;99551.59;7394170;19;20337;-48
2022/04/10 02:15:27;;;;;;;4.35;1.95;;;;;;;0.58;100.00;99556.78;7398151;19;20147;-45
2022/04/10 02:17:56;;;;;;;10.93;2.70;;;;;;;0.59;100.00;99559.41;7369409;19;20598;-45
2022/04/10 02:20:26;;;;;;;10.98;2.05;;;;;;;0.63;100.00;99550.34;7395370;19;20145;-48
2022/04/10 02:22:58;;;;;;;6.75;1.50;;;;;;;0.61;100.00;99544.28;7391408;19;20123;-43
2022/04/10 02:25:27;;;;;;;8.30;1.70;;;;;;;0.64;100.00;99540.28;7396566;19;20595;-45
2022/04/10 02:27:57;;;;;;;14.77;3.80;;;;;;;0.59;100.00;99526.41;7385621;19;21043;-44
2022/04/10 02:30:26;;;;;;;5.10;1.90;;;;;;;0.61;100.00;99534.13;7396712;19;20127;-52
2022/04/10 02:32:56;;;;;;;2.42;1.90;;;;;;;0.56;100.00;99538.91;7392930;19;20611;-46
2022/04/10 02:35:25;;;;;;;5.93;1.90;;;;;;;0.48;100.00;99532.47;7395363;19;20135;-50
2022/04/10 02:37:57;;;;;;;14.82;2.97;;;;;;;0.46;100.00;99544.22;7390021;19;20127;-45
2022/04/10 02:40:27;;;;;;;7.90;1.88;;;;;;;0.36;100.00;99543.59;7396934;19;20485;-43
2022/04/10 02:42:56;;;;;;;7.47;3.97;;;;;;;0.18;100.00;99550.06;7394720;19;20142;-47
2022/04/10 02:45:26;;;;;;;11.13;2.45;;;;;;;0.12;100.00;99545.47;7396200;19;20123;-48
2022/04/10 02:47:55;;;;;;;8.55;2.63;;;;;;;0.10;100.00;99545.38;7388145;19;20127;-45
2022/04/10 02:50:25;;;;;;;7.57;1.60;;;;;;;-0.04;100.00;99539.41;7396142;19;20139;-45
2022/04/10 02:52:54;;;;;;;6.50;1.70;;;;;;;-0.04;100.00;99508.09;7390703;19;20676;-46
2022/04/10 02:55:27;;;;;;;4.72;2.20;;;;;;;-0.08;100.00;99524.78;7395056;19;20125;-43
2022/04/10 02:57:56;;;;;;;5.65;1.80;;;;;;;-0.08;100.00;99507.03;7390284;19;20130;-45
2022/04/10 03:00:26;;;;;;;7.07;1.88;;;;;;;-0.11;100.00;99518.63;7395863;19;20127;-44
2022/04/10 03:02:55;;;;;;;8.90;2.42;;;;;;;-0.09;100.00;99514.53;7386920;19;20137;-44
2022/04/10 03:05:25;;;;;;;11.40;2.60;;;;;;;-0.15;100.00;99515.88;7395734;19;20194;-44
2022/04/10 03:07:57;;;;;;;4.78;1.60;;;;;;;-0.26;100.00;99509.22;7388929;19;20292;-46
2022/04/10 03:10:29;;;;;;;4.43;1.65;;;;;;;-0.32;100.00;99502.13;7395178;19;20139;-44
2022/04/10 03:12:59;;;;;;;7.30;1.95;;;;;;;-0.44;100.00;99601.06;7391011;19;20182;-47
2022/04/10 03:15:28;;;;;;;4.45;1.80;;;;;;;-0.45;100.00;99619.56;7394441;19;20521;-44
2022/04/10 03:17:58;;;;;;;12.02;2.88;;;;;;;-0.45;100.00;99621.22;7383806;19;20545;-46
2022/04/10 03:20:27;;;;;;;2.80;1.15;;;;;;;-0.41;100.00;99635.88;7395089;19;20144;-52
2022/04/10 03:22:57;;;;;;;6.78;2.25;;;;;;;-0.43;100.00;99648.44;7374562;19;20141;-51
2022/04/10 03:25:29;;;;;;;2.20;1.05;;;;;;;-0.34;100.00;99644.75;7394630;19;20133;-45
2022/04/10 03:27:58;;;;;;;4.13;1.85;;;;;;;-0.31;100.00;99638.22;7387069;19;20216;-49
2022/04/10 03:30:28;;;;;;;5.82;1.95;;;;;;;-0.38;100.00;99641.13;7394693;19;20127;-46
2022/04/10 03:32:57;;;;;;;2.88;1.27;;;;;;;-0.42;100.00;99634.97;7389502;19;20140;-49
2022/04/10 03:35:27;;;;;;;7.40;1.52;;;;;;;-0.35;100.00;99638.81;7393857;19;20593;-44
2022/04/10 03:37:56;;;;;;;4.93;1.98;;;;;;;-0.36;100.00;99639.56;7386829;19;20476;-47
2022/04/10 03:40:28;;;;;;;8.18;1.90;;;;;;;-0.36;100.00;99636.19;7397324;19;20134;-45
2022/04/10 03:42:57;;;;;;;10.82;3.25;;;;;;;-0.31;100.00;99644.97;7389860;19;20210;-45
2022/04/10 03:45:27;;;;;;;9.00;2.97;;;;;;;-0.35;100.00;99650.59;7394322;19;20133;-49
2022/04/10 03:47:58;;;;;;;3.70;1.92;;;;;;;-0.35;100.00;99646.44;7389042;19;20205;-45
2022/04/10 03:50:28;;;;;;;9.77;3.60;;;;;;;-0.35;100.00;99645.53;7393940;19;20594;-45
2022/04/10 03:52:57;;;;;;;11.23;4.60;;;;;;;-0.33;100.00;99660.06;7389247;19;20210;-47
2022/04/10 03:55:30;;;;;;;7.90;2.83;;;;;;;-0.33;100.00;99667.69;7393549;19;20134;-45
2022/04/10 03:57:59;;;;;;;13.18;3.20;;;;;;;-0.30;100.00;99665.34;7388043;19;20658;-51
2022/04/10 04:00:29;;;;;;;10.85;3.70;;;;;;;-0.19;100.00;99673.69;7393706;19;20123;-47
2022/04/10 04:02:58;;;;;;;4.60;2.70;;;;;;;-0.21;100.00;99670.16;7387274;19;20197;-45
2022/04/10 04:05:28;;;;;;;10.32;2.88;;;;;;;-0.16;100.00;99667.94;7393685;19;20210;-44
2022/04/10 04:07:58;;;;;;;16.20;3.20;;;;;;;-0.07;100.00;99672.75;7385452;19;20218;-43
2022/04/10 04:10:30;;;;;;;13.02;3.00;;;;;;;-0.08;100.00;99665.91;7393516;19;20137;-47
2022/04/10 04:12:59;;;;;;;11.57;2.95;;;;;;;-0.02;100.00;99681.53;7364821;19;20232;-48
2022/04/10 04:15:29;;;;;;;10.98;2.95;;;;;;;-0.06;100.00;99704.97;7391846;19;20129;-46
2022/04/10 04:17:59;;;;;;;15.45;3.30;;;;;;;-0.06;100.00;99700.75;7387200;19;20186;-45
2022/04/10 04:20:28;;;;;;;9.93;3.47;;;;;;;0.00;100.00;99710.44;7393451;19;20127;-44
2022/04/10 04:22:58;;;;;;;7.80;2.30;;;;;;;-0.03;100.00;99710.22;7388756;19;20572;-47
2022/04/10 04:25:30;;;;;;;9.73;3.13;;;;;;;-0.10;100.00;99708.06;7394406;19;20529;-44
2022/04/10 04:27:59;;;;;;;8.27;4.10;;;;;;;-0.14;100.00;99706.97;7370999;19;20661;-44
2022/04/10 04:30:29;;;;;;;13.65;4.47;;;;;;;-0.27;100.00;99715.38;7393035;19;20127;-45
2022/04/10 04:32:58;;;;;;;12.73;3.40;;;;;;;-0.28;100.00;99718.69;7383027;19;20259;-51
2022/04/10 04:35:28;;;;;;;19.88;3.88;;;;;;;-0.33;100.00;99720.03;7392709;19;20123;-44
2022/04/10 04:37:57;;;;;;;9.43;3.53;;;;;;;-0.33;100.00;99731.06;7394193;19;20206;-47
2022/04/10 04:40:32;;;;;;;13.20;3.72;;;;;;;-0.29;100.00;99738.09;7400484;19;20127;-45
2022/04/10 04:43:02;;;;;;;10.77;3.80;;;;;;;-0.24;100.00;99746.03;7394473;19;20217;-45
2022/04/10 04:45:31;;;;;;;18.90;5.70;;;;;;;-0.08;100.00;99742.00;7400258;19;20133;-44
2022/04/10 04:48:00;;;;;;;9.95;3.80;;;;;;;-0.07;100.00;99746.28;7367931;19;20193;-45
2022/04/10 04:50:30;;;;;;;18.85;4.57;;;;;;;-0.08;100.00;99747.06;7398734;19;20491;-44
2022/04/10 04:52:59;;;;;;;11.93;4.05;;;;;;;-0.05;100.00;99747.28;7394434;19;20194;-48
2022/04/10 04:55:31;;;;;;;20.58;5.43;;;;;;;0.06;100.00;99741.25;7400389;19;20123;-48
2022/04/10 04:58:01;;;;;;;8.77;4.68;;;;;;;0.06;100.00;99751.41;7390576;19;20192;-45
2022/04/10 05:00:30;;;;;;;15.32;5.10;;;;;;;0.08;100.00;99754.06;7399456;19;20485;-46
2022/04/10 05:03:00;;;;;;;15.73;4.28;;;;;;;0.13;100.00;99760.34;7393366;19;20201;-50
2022/04/10 05:05:29;;;;;;;13.70;4.47;;;;;;;0.20;100.00;99761.63;7399594;19;20586;-47
2022/04/10 05:07:59;;;;;;;13.93;4.32;;;;;;;0.17;100.00;99769.03;7390373;19;20196;-49
2022/04/10 05:10:28;;;;;;;22.45;5.93;;;;;;;0.23;100.00;99774.50;7399332;19;20131;-44
2022/04/10 05:13:00;;;;;;;13.93;5.55;;;;;;;0.30;100.00;99778.34;7367470;19;20529;-47
2022/04/10 05:15:30;;;;;;;24.20;4.10;;;;;;;0.32;100.00;99785.31;7398184;19;20127;-45
2022/04/10 05:18:00;;;;;;;16.42;3.95;;;;;;;0.32;100.00;99790.38;7374500;19;20198;-46
2022/04/10 05:20:29;;;;;;;12.15;3.05;;;;;;;0.33;100.00;99786.16;7399116;19;20127;-46
2022/04/10 05:22:59;;;;;;;15.85;4.50;;;;;;;0.34;100.00;99793.88;7390419;19;20190;-48
2022/04/10 05:25:28;;;;;;;14.60;4.15;;;;;;;0.39;100.00;99787.47;7398847;19;20131;-47
2022/04/10 05:28:00;;;;;;;4.53;1.77;;;;;;;0.43;100.00;99786.00;7392801;19;20208;-46
2022/04/10 05:30:30;;;;;;;14.25;5.07;;;;;;;0.48;100.00;99788.84;7398917;19;20123;-50
2022/04/10 05:33:00;;;;;;;21.58;4.95;;;;;;;0.52;100.00;99788.28;7390577;19;20197;-45
2022/04/10 05:35:29;;;;;;;15.73;3.13;;;;;;;0.59;100.00;99790.44;7403331;19;20127;-47
2022/04/10 05:37:59;;;;;;;9.57;2.40;;;;;;;0.63;100.00;99797.50;7388027;19;20661;-48
2022/04/10 05:40:28;;;;;;;19.35;4.80;;;;;;;0.67;100.00;99789.28;7398520;19;20123;-49
2022/04/10 05:43:00;;;;;;;16.70;5.40;;;;;;;0.72;100.00;99798.88;7391372;19;20230;-50
2022/04/10 05:45:30;;;;;;;20.75;5.28;;;;;;;0.73;100.00;99813.34;7397991;19;20123;-50
2022/04/10 05:47:59;;;;;;;18.73;4.57;;;;;;;0.79;100.00;99809.56;7387079;19;21119;-48
2022/04/10 05:50:29;;;;;;;28.10;5.30;;;;;;;0.83;100.00;99820.78;7397919;19;20123;-49
2022/04/10 05:52:58;;;;;;;13.73;4.40;;;;;;;0.91;100.00;99817.09;7393110;19;20228;-46
2022/04/10 05:55:28;;;;;;;22.92;4.63;;;;;;;0.79;100.00;99821.34;7398077;19;20469;-45
2022/04/10 05:58:01;;;;;;;15.65;4.93;;;;;;;0.93;100.00;99819.72;7381809;19;20218;-47
2022/04/10 06:00:30;;;;;;;11.45;4.50;;;;;;;1.12;100.00;99813.31;7397839;19;20129;-44
2022/04/10 06:03:03;;;;;;;12.80;4.97;;;;;;;0.84;100.00;99816.56;7391299;19;20200;-44
2022/04/10 06:05:33;;;;;;;15.75;4.93;;;;;;;0.74;100.00;99830.31;7397651;19;20411;-49
2022/04/10 06:08:03;;;;;;;21.65;4.82;;;;;;;0.94;100.00;99829.09;7390989;19;20201;-45
2022/04/10 06:10:32;;;;;;;15.30;4.35;;;;;;;1.13;100.00;99846.41;7397268;19;20487;-45
2022/04/10 06:13:12;;;;;;;25.80;9.10;;;;;;;1.21;100.00;99845.28;7392199;19;20194;-46
2022/04/10 06:15:45;;;;;;;13.30;4.25;;;;;;;1.62;100.00;99857.97;7397103;19;20489;-46
2022/04/10 06:18:14;;;;;;;15.65;4.13;;;;;;;1.53;100.00;99873.53;7373502;19;20253;-49
2022/04/10 06:20:44;;;;;;;16.43;3.07;;;;;;;1.64;100.00;99866.56;7398346;19;20148;-43
2022/04/10 06:23:14;;;;;;;9.90;3.53;;;;;;;1.70;100.00;99866.97;7391521;19;20456;-46
2022/04/10 06:25:44;;;;;;;13.77;3.93;;;;;;;1.84;100.00;99860.22;7396719;19;20387;-46
2022/04/10 06:28:16;;;;;;;14.53;3.50;;;;;;;1.63;100.00;99862.28;7366697;19;20428;-48
2022/04/10 06:30:46;;;;;;;14.20;5.00;;;;;;;1.47;100.00;99856.22;7395492;19;20371;-46
2022/04/10 06:33:16;;;;;;;14.20;4.40;;;;;;;1.57;100.00;99874.59;7383442;19;20416;-45
2022/04/10 06:35:45;;;;;;;9.53;3.37;;;;;;;1.63;100.00;99887.72;7394979;19;20490;-48
2022/04/10 06:38:15;;;;;;;10.93;3.23;;;;;;;1.68;100.00;99888.00;7392147;19;20430;-47
2022/04/10 06:40:45;;;;;;;12.57;2.80;;;;;;;1.56;100.00;99872.84;7400303;19;20469;-46
2022/04/10 06:43:17;;;;;;;11.10;3.73;;;;;;;1.67;100.00;99870.97;7388603;19;20421;-45
2022/04/10 06:45:49;;;;;;;17.02;3.17;;;;;;;1.69;100.00;99865.22;7396081;19;20373;-47
2022/04/10 06:48:19;;;;;;;21.60;2.90;;;;;;;1.62;100.00;99873.25;7387847;19;20200;-48
2022/04/10 06:50:49;;;;;;;12.23;3.10;;;;;;;1.68;100.00;99878.72;7395766;19;20755;-47
2022/04/10 06:53:18;;;;;;;10.70;3.70;;;;;;;1.74;100.00;99883.28;7393324;19;20200;-44
2022/04/10 06:55:48;;;;;;;21.37;4.70;;;;;;;1.82;100.00;99892.31;7395488;19;20367;-46
2022/04/10 06:58:22;;;;;;;9.90;2.80;;;;;;;1.83;100.00;99888.09;7387797;19;20427;-48
2022/04/10 07:00:52;;;;;;;8.43;2.30;;;;;;;1.86;100.00;99903.56;7398836;19;20390;-44
2022/04/10 07:03:22;;;;;;;9.37;2.80;;;;;;;1.83;100.00;99914.41;7387218;19;20488;-46
2022/04/10 07:05:52;;;;;;;6.87;1.90;;;;;;;1.71;100.00;99912.00;7395315;19;20722;-47
2022/04/10 07:08:22;;;;;;;12.50;2.43;;;;;;;1.78;100.00;99940.34;7388186;19;20421;-48
2022/04/10 07:10:51;;;;;;;4.93;1.27;;;;;;;2.33;100.00;99914.94;7395276;19;20406;-44
2022/04/10 07:13:25;;;;;;;12.83;3.50;;;;;;;2.93;100.00;99916.78;7388975;19;20399;-45
2022/04/10 07:15:55;;;;;;;27.77;11.60;;;;;;;2.99;100.00;99922.25;7395662;19;20720;-47
2022/04/10 07:18:24;;;;;;;10.73;3.10;;;;;;;2.72;100.00;99927.44;7386774;19;20401;-49
2022/04/10 07:20:53;;;;;;;14.37;3.27;;;;;;;2.29;100.00;99941.88;7394677;19;20391;-45
2022/04/10 07:26:06;;;;;;;2.53;1.57;;;;;;;1.79;100.00;99967.56;7394682;19;20374;-43
2022/04/10 07:28:38;;;;;;;5.97;2.77;;;;;;;1.79;100.00;99965.00;7382043;19;20404;-46
2022/04/10 07:31:08;;;;;;;15.47;3.00;;;;;;;2.04;100.00;99958.94;7394531;19;20434;-45
2022/04/10 07:33:38;;;;;;;17.40;2.93;;;;;;;2.10;100.00;99964.44;7387492;19;20963;-49
2022/04/10 07:36:10;;;;;;;6.10;2.20;;;;;;;2.12;100.00;99967.94;7393797;19;20388;-45
2022/04/10 07:38:39;;;;;;;8.50;2.00;;;;;;;2.26;100.00;99954.41;7386138;19;20976;-47
2022/04/10 07:41:09;;;;;;;8.80;1.80;;;;;;;2.16;100.00;99957.19;7394258;19;20744;-49
2022/04/10 07:43:41;;;;;;;12.23;3.40;;;;;;;2.42;100.00;99948.59;7387155;19;20405;-47
2022/04/10 07:48:53;;;;;;;11.87;3.13;;;;;;;2.62;100.00;99948.06;7380172;19;20482;-47
2022/04/10 07:51:22;;;;;;;12.47;3.20;;;;;;;2.76;100.00;99949.75;7394027;19;20362;-49
2022/04/10 07:53:53;;;;;;;15.20;2.10;;;;;;;2.90;100.00;99953.16;7386772;19;20419;-48
2022/04/10 07:56:24;;;;;;;6.40;2.00;;;;;;;2.95;100.00;99963.63;7393863;19;20914;-45
2022/04/10 07:58:56;;;;;;;8.50;2.00;;;;;;;3.15;100.00;99963.91;7382363;19;20756;-45
2022/04/10 08:01:25;;;;;;;17.60;3.53;;;;;;;3.43;100.00;99955.34;7393703;19;20384;-50
2022/04/10 08:03:55;;;;;;;9.67;2.20;;;;;;;3.53;100.00;99960.16;7379544;19;20769;-48
2022/04/10 08:06:24;;;;;;;13.90;2.20;;;;;;;3.56;100.00;99957.81;7393414;19;20391;-47
2022/04/10 08:08:54;;;;;;;16.43;3.43;;;;;;;3.13;100.00;99980.78;7385872;19;20441;-49
2022/04/10 08:11:23;;;;;;;6.73;2.10;;;;;;;2.59;100.00;99978.41;7391373;19;20709;-43
2022/04/10 08:13:56;;;;;;;17.43;5.23;;;;;;;2.38;100.00;99996.69;7392230;19;20428;-50
2022/04/10 08:16:25;;;;;;;17.47;3.23;;;;;;;2.34;100.00;100005.81;7393088;19;20374;-51
2022/04/10 08:18:56;;;;;;;11.10;2.83;;;;;;;2.36;100.00;100004.22;7389648;19;20421;-48
2022/04/10 08:21:25;;;;;;;45.17;14.87;;;;;;;2.51;100.00;100019.59;7393212;19;20394;-47
2022/04/10 08:23:55;;;;;;;24.00;3.00;;;;;;;2.67;100.00;100016.31;7385485;19;20643;-48
2022/04/10 08:26:24;;;;;;;10.50;3.17;;;;;;;2.89;100.00;100014.22;7392578;19;20388;-46
2022/04/10 08:28:56;;;;;;;3.77;0.90;;;;;;;3.05;100.00;99998.19;7383950;19;20394;-44
2022/04/10 08:31:28;;;;;;;11.83;2.63;;;;;;;3.20;100.00;100003.31;7393000;19;20367;-48
2022/04/10 08:33:58;;;;;;;11.70;2.40;;;;;;;3.17;100.00;100009.09;7383209;19;20416;-43
2022/04/10 08:36:28;;;;;;;17.27;3.07;;;;;;;3.08;100.00;100017.09;7392242;19;20926;-50
2022/04/10 08:38:58;;;;;;;5.93;1.63;;;;;;;3.05;100.00;100024.56;7379146;19;20776;-46
2022/04/10 08:41:31;;;;;;;20.40;4.17;;;;;;;3.22;100.00;100024.66;7392725;19;20390;-48
2022/04/10 08:44:06;;;;;;;5.73;1.80;;;;;;;3.44;100.00;100024.28;7384505;19;20800;-44
2022/04/10 08:46:36;;;;;;;8.53;2.20;;;;;;;3.48;100.00;100032.97;7392326;19;20394;-48
2022/04/10 08:49:05;;;;;;;14.77;6.37;;;;;;;3.59;100.00;100037.03;7379542;19;20449;-47
2022/04/10 08:51:35;;;;;;;29.07;5.73;;;;;;;3.74;100.00;100044.72;7392935;19;20388;-46
2022/04/10 08:54:06;;;;;;;18.70;6.90;;;;;;;3.82;100.00;100029.84;7387178;19;20435;-46
2022/04/10 08:56:35;;;;;;;10.60;3.30;;;;;;;4.01;100.00;100043.66;7392112;19;20693;-50
2022/04/10 08:59:07;;;;;;;70.30;26.57;;;;;;;4.03;100.00;100021.66;7384890;19;20477;-51
2022/04/10 09:01:37;;;;;;;17.07;5.57;;;;;;;4.07;100.00;100015.94;7393148;19;20398;-45
2022/04/10 09:04:07;;;;;;;13.20;2.47;;;;;;;4.25;100.00;100012.66;7377762;19;20403;-47
2022/04/10 09:06:41;;;;;;;17.47;3.87;;;;;;;4.52;100.00;99976.63;7388396;19;20409;-48
2022/04/10 09:09:16;;;;;;;28.23;8.40;;;;;;;4.54;100.00;99978.47;7382787;19;20434;-46
2022/04/10 09:11:53;;;;;;;26.27;7.47;;;;;;;4.35;100.00;100201.34;7389290;19;20401;-46
2022/04/10 09:14:26;;;;;;;12.13;3.40;;;;;;;4.13;100.00;100248.63;7383146;19;20418;-44
2022/04/10 09:17:12;;;;;;;18.70;6.23;;;;;;;4.19;100.00;100251.56;7389069;19;20380;-47
2022/04/10 09:19:44;;;;;;;17.43;3.60;;;;;;;4.11;100.00;100254.44;7377044;19;20414;-49
2022/04/10 09:22:38;;;;;;;16.47;4.17;;;;;;;4.19;100.00;100271.97;7390968;19;20384;-48
2022/04/10 09:25:13;;;;;;;9.77;2.70;;;;;;;4.54;100.00;100256.97;7395600;19;20792;-46
2022/04/10 09:27:45;;;;;;;13.47;3.77;;;;;;;4.75;100.00;100270.88;7388983;19;20387;-46
2022/04/10 09:30:18;;;;;;;15.43;2.50;;;;;;;4.70;100.00;100298.72;7394399;19;20430;-44
2022/04/10 09:32:50;;;;;;;14.83;4.20;;;;;;;4.69;100.00;100328.53;7390445;19;20469;-50
2022/04/10 09:35:20;;;;;;;12.43;1.90;;;;;;;4.89;100.00;100340.72;7394553;19;20758;-48
2022/04/10 09:37:51;;;;;;;13.57;2.57;;;;;;;4.97;100.00;100354.84;7391238;19;20399;-47
2022/04/10 09:40:28;;;;;;;4.27;1.63;;;;;;;4.84;100.00;100363.44;7394601;19;20394;-48
2022/04/10 09:43:06;;;;;;;9.77;2.33;;;;;;;4.98;100.00;100347.22;7387803;19;20619;-48
2022/04/10 09:45:39;;;;;;;18.37;4.30;;;;;;;4.78;100.00;100368.19;7397492;19;20737;-49
2022/04/10 09:48:27;;;;;;;14.30;3.67;;;;;;;4.94;100.00;100369.97;7385758;19;20407;-45
2022/04/10 09:51:01;;;;;;;8.20;2.07;;;;;;;4.97;100.00;100371.03;7397126;19;20399;-50
2022/04/10 09:53:32;;;;;;;11.50;3.30;;;;;;;5.03;100.00;100400.31;7390171;19;20425;-47
2022/04/10 09:56:03;;;;;;;12.83;3.33;;;;;;;4.98;100.00;100383.03;7396727;19;20408;-51
2022/04/10 09:58:33;;;;;;;11.63;3.10;;;;;;;5.18;100.00;100378.19;7388302;19;20772;-47
2022/04/10 10:01:10;;;;;;;26.23;4.63;;;;;;;5.28;100.00;100377.03;7397815;19;20398;-46
2022/04/10 10:03:41;;;;;;;19.60;4.90;;;;;;;5.10;100.00;100421.25;7388836;19;20438;-46
2022/04/10 10:06:12;;;;;;;24.93;4.50;;;;;;;5.08;100.00;100429.63;7397438;19;20396;-48
2022/04/10 10:08:42;;;;;;;13.30;2.20;;;;;;;5.07;100.00;100443.19;7391737;19;20573;-48
2022/04/10 10:11:12;;;;;;;10.90;3.20;;;;;;;5.09;100.00;100454.38;7396995;19;20384;-46
2022/04/10 10:13:41;;;;;;;7.43;1.67;;;;;;;5.23;100.00;100448.41;7389755;19;20404;-51
2022/04/10 10:16:14;;;;;;;11.93;3.33;;;;;;;5.24;100.00;100472.31;7396575;19;20384;-51
2022/04/10 10:18:46;;;;;;;10.30;2.60;;;;;;;5.21;100.00;100487.47;7387701;19;20440;-49
2022/04/10 10:21:17;;;;;;;12.50;2.23;;;;;;;5.36;100.00;100497.72;7396978;19;20388;-48
2022/04/10 10:23:50;;;;;;;10.27;2.67;;;;;;;5.38;100.00;100531.94;7391194;19;20415;-46
2022/04/10 10:26:31;;;;;;;6.63;1.33;;;;;;;5.65;100.00;100590.72;7395755;19;20388;-45
2022/04/10 10:29:11;;;;;;;11.10;1.53;;;;;;;5.94;100.00;100625.69;7388215;19;20754;-46
2022/04/10 10:31:50;;;;;;;5.33;1.13;;;;;;;5.99;100.00;100684.00;7396569;19;20740;-46
2022/04/10 10:34:26;;;;;;;17.20;1.10;;;;;;;6.08;100.00;100721.31;7385768;19;20420;-47
2022/04/10 10:36:57;;;;;;;7.00;0.80;;;;;;;5.93;100.00;100769.91;7396206;19;20408;-49
2022/04/10 10:39:26;;;;;;;7.40;1.30;;;;;;;5.64;100.00;100791.16;7384493;19;20439;-46
2022/04/10 10:41:56;;;;;;;7.03;1.70;;;;;;;5.60;100.00;100791.75;7396524;19;20393;-46
2022/04/10 10:44:44;;;;;;;7.50;1.90;;;;;;;5.90;100.00;100779.09;7387835;19;20427;-47
2022/04/10 10:47:26;;;;;;;7.10;1.77;;;;;;;6.27;100.00;100786.47;7395843;19;20382;-48
2022/04/10 10:49:57;;;;;;;7.87;1.83;;;;;;;6.25;100.00;100811.09;7380554;19;20542;-50
2022/04/10 10:52:26;;;;;;;10.67;1.60;;;;;;;6.23;100.00;100828.06;7395458;19;20389;-46
2022/04/10 10:54:57;;;;;;;6.67;1.40;;;;;;;6.10;100.00;100823.84;7390244;19;20475;-50
2022/04/10 10:57:29;;;;;;;11.53;1.93;;;;;;;5.97;100.00;100811.97;7397523;19;20468;-46
2022/04/10 11:00:12;;;;;;;8.77;1.20;;;;;;;5.69;100.00;100815.34;7383774;19;20445;-44
2022/04/10 11:02:49;;;;;;;6.47;1.47;;;;;;;5.85;100.00;100804.38;7384831;19;20401;-47
2022/04/10 11:05:32;;;;;;;8.47;1.50;;;;;;;5.85;100.00;100796.72;7395000;19;20380;-48
2022/04/10 11:08:04;;;;;;;8.07;1.60;;;;;;;5.95;100.00;100803.31;7388924;19;20422;-48
2022/04/10 11:10:35;;;;;;;9.33;1.60;;;;;;;5.92;100.00;100808.22;7395036;19;20397;-52
2022/04/10 11:13:06;;;;;;;7.13;1.60;;;;;;;4.99;100.00;100801.59;7385801;19;20418;-44
2022/04/10 11:15:47;;;;;;;8.60;1.80;;;;;;;4.38;100.00;100760.13;7398861;19;20948;-49
2022/04/10 11:18:36;;;;;;;6.23;1.70;;;;;;;4.31;100.00;100692.44;7384811;19;20428;-45
2022/04/10 11:21:13;;;;;;;7.63;1.83;;;;;;;4.51;100.00;100667.28;7393393;19;20475;-47
2022/04/10 11:23:53;;;;;;;6.80;0.90;;;;;;;3.98;100.00;100661.28;7388047;19;20422;-45
2022/04/10 11:26:27;;;;;;;9.63;1.73;;;;;;;3.65;100.00;100628.50;7393910;19;20392;-45
2022/04/10 11:29:00;;;;;;;5.27;1.37;;;;;;;3.58;100.00;100591.47;7383893;19;20430;-46
2022/04/10 11:31:37;;;;;;;6.80;1.40;;;;;;;3.96;100.00;100555.63;7394495;19;20387;-48
2022/04/10 11:34:14;;;;;;;5.50;1.60;;;;;;;4.01;100.00;100559.38;7384225;19;20797;-47
2022/04/10 11:36:52;;;;;;;6.13;1.67;;;;;;;4.18;100.00;100561.34;7394195;19;20714;-47
2022/04/10 11:39:30;;;;;;;5.30;1.30;;;;;;;4.58;100.00;100582.56;7390110;19;20443;-49
2022/04/10 11:42:01;;;;;;;7.03;1.70;;;;;;;4.77;100.00;100609.28;7393989;19;20712;-45
2022/04/10 11:44:31;;;;;;;7.10;1.40;;;;;;;4.89;100.00;100638.19;7386775;19;20415;-43
2022/04/10 11:47:05;;;;;;;15.20;1.90;;;;;;;4.89;100.00;100680.75;7391278;19;20407;-47
2022/04/10 11:49:38;;;;;;;8.13;1.10;;;;;;;5.27;100.00;100683.16;7383116;19;20747;-49